createdAt,value
2022-12-08T00:00:09.509Z,5.78
2022-12-08T00:02:39.084Z,6.90
2022-12-08T00:05:24.494Z,5.88
2022-12-08T00:08:09.695Z,5.38
2022-12-08T00:10:51.533Z,6.43
2022-12-08T00:13:18.080Z,6.25
2022-12-08T00:15:44.576Z,6.45
2022-12-08T00:18:11.117Z,5.78
2022-12-08T00:20:37.599Z,6.05
2022-12-08T00:23:04.230Z,7.60
2022-12-08T00:25:31.694Z,6.07
2022-12-08T00:27:58.189Z,6.32
2022-12-08T00:30:24.664Z,6.15
2022-12-08T00:32:51.163Z,6.20
2022-12-08T00:35:17.753Z,6.72
2022-12-08T00:37:44.272Z,5.90
2022-12-08T00:40:10.928Z,5.90
2022-12-08T00:42:37.423Z,5.63
2022-12-08T00:45:04.140Z,5.53
2022-12-08T00:47:30.630Z,5.38
2022-12-08T00:49:57.106Z,5.78
2022-12-08T00:52:23.637Z,5.00
2022-12-08T00:54:50.125Z,5.30
2022-12-08T00:57:16.661Z,6.30
2022-12-08T00:59:43.185Z,6.47
2022-12-08T01:02:09.671Z,6.03
2022-12-08T01:04:36.203Z,5.20
2022-12-08T01:07:02.735Z,5.03
2022-12-08T01:09:29.339Z,6.22
2022-12-08T01:11:55.918Z,5.30
2022-12-08T01:14:22.442Z,4.75
2022-12-08T01:16:49.075Z,5.35
2022-12-08T01:19:16.149Z,5.20
2022-12-08T01:21:43.829Z,6.18
2022-12-08T01:24:12.326Z,5.45
2022-12-08T01:26:38.824Z,5.55
2022-12-08T01:29:05.977Z,5.00
2022-12-08T01:31:32.686Z,5.63
2022-12-08T01:33:59.168Z,6.38
2022-12-08T01:36:28.075Z,5.55
2022-12-08T01:38:57.544Z,5.85
2022-12-08T01:41:28.631Z,5.53
2022-12-08T01:44:00.097Z,5.80
2022-12-08T01:46:28.509Z,5.97
2022-12-08T01:49:03.909Z,6.25
2022-12-08T01:51:33.512Z,5.20
2022-12-08T01:54:00.366Z,5.55
2022-12-08T01:56:33.826Z,5.30
2022-12-08T01:59:00.931Z,6.05
2022-12-08T02:01:27.582Z,5.70
2022-12-08T02:03:59.764Z,5.90
2022-12-08T02:06:28.585Z,6.50
2022-12-08T02:08:55.241Z,5.95
2022-12-08T02:11:21.914Z,5.72
2022-12-08T02:13:50.160Z,7.47
2022-12-08T02:16:26.878Z,5.25
2022-12-08T02:19:31.773Z,5.72
2022-12-08T02:22:07.377Z,5.63
2022-12-08T02:24:39.180Z,6.28
2022-12-08T02:27:22.857Z,6.57
2022-12-08T02:30:22.787Z,6.30
2022-12-08T02:33:10.481Z,8.52
2022-12-08T02:39:19.266Z,5.70
2022-12-08T02:41:54.998Z,6.32
2022-12-08T02:44:36.824Z,6.13
2022-12-08T02:47:11.347Z,7.32
2022-12-08T02:49:37.948Z,7.47
2022-12-08T02:52:10.298Z,7.28
2022-12-08T02:54:37.317Z,7.30
2022-12-08T02:57:33.754Z,6.95
2022-12-08T03:00:08.191Z,7.07
2022-12-08T03:02:42.073Z,6.20
2022-12-08T03:05:24.068Z,6.07
2022-12-08T03:08:10.723Z,7.30
2022-12-08T03:10:42.197Z,7.15
2022-12-08T03:13:17.790Z,5.78
2022-12-08T03:15:48.469Z,6.18
2022-12-08T03:18:16.514Z,6.07
2022-12-08T03:20:45.219Z,5.07
2022-12-08T03:23:13.513Z,6.35
2022-12-08T03:25:57.070Z,6.40
2022-12-08T03:28:23.837Z,5.35
2022-12-08T03:30:54.076Z,6.65
2022-12-08T03:33:25.271Z,5.53
2022-12-08T03:35:52.707Z,5.85
2022-12-08T03:38:19.736Z,6.00
2022-12-08T03:41:09.151Z,5.95
2022-12-08T03:43:35.868Z,6.22
2022-12-08T03:46:02.449Z,6.45
2022-12-08T03:48:29.211Z,5.90
2022-12-08T03:50:55.705Z,6.25
2022-12-08T03:53:22.205Z,5.93
2022-12-08T03:55:48.690Z,6.40
2022-12-08T03:58:15.232Z,5.43
2022-12-08T04:00:41.719Z,5.50
2022-12-08T04:03:08.234Z,6.43
2022-12-08T04:05:34.752Z,6.28
2022-12-08T04:08:01.427Z,6.00
2022-12-08T04:10:28.071Z,6.30
2022-12-08T04:12:54.630Z,6.13
2022-12-08T04:15:21.250Z,5.50
2022-12-08T04:17:47.755Z,6.40
2022-12-08T04:20:14.375Z,5.10
2022-12-08T04:22:40.910Z,6.15
2022-12-08T04:25:07.828Z,6.18
2022-12-08T04:27:34.382Z,6.13
2022-12-08T04:30:00.856Z,6.13
2022-12-08T04:32:27.361Z,5.47
2022-12-08T04:34:53.832Z,6.13
2022-12-08T04:37:20.323Z,6.38
2022-12-08T04:39:46.822Z,5.72
2022-12-08T04:42:13.323Z,5.95
2022-12-08T04:44:39.899Z,6.70
2022-12-08T04:47:06.499Z,5.95
2022-12-08T04:49:33.119Z,6.68
2022-12-08T04:51:59.680Z,5.53
2022-12-08T04:54:26.924Z,5.40
2022-12-08T04:56:53.440Z,5.13
2022-12-08T04:59:20.132Z,6.22
2022-12-08T05:01:46.852Z,5.50
2022-12-08T05:04:13.514Z,6.25
2022-12-08T05:06:39.993Z,6.50
2022-12-08T05:09:06.490Z,6.25
2022-12-08T05:11:33.017Z,6.05
2022-12-08T05:13:59.512Z,7.03
2022-12-08T05:16:26.071Z,5.50
2022-12-08T05:18:52.598Z,6.47
2022-12-08T05:21:19.096Z,5.03
2022-12-08T05:23:45.596Z,5.22
2022-12-08T05:26:12.126Z,5.85
2022-12-08T05:28:41.767Z,6.15
2022-12-08T05:31:09.436Z,7.72
2022-12-08T05:33:36.102Z,5.93
2022-12-08T05:36:02.643Z,6.55
2022-12-08T05:38:29.464Z,5.75
2022-12-08T05:40:55.959Z,5.32
2022-12-08T05:43:22.559Z,5.32
2022-12-08T05:45:49.170Z,5.53
2022-12-08T05:48:16.247Z,6.40
2022-12-08T05:50:49.697Z,6.03
2022-12-08T05:53:17.477Z,5.72
2022-12-08T05:55:44.110Z,4.82
2022-12-08T05:58:14.026Z,5.35
2022-12-08T06:00:41.097Z,5.80
2022-12-08T06:03:07.815Z,6.20
2022-12-08T06:05:35.303Z,6.82
2022-12-08T06:08:02.004Z,5.70
2022-12-08T06:10:28.776Z,5.45
2022-12-08T06:12:55.526Z,5.57
2022-12-08T06:15:22.022Z,4.82
2022-12-08T06:17:48.532Z,5.97
2022-12-08T06:20:15.158Z,5.85
2022-12-08T06:22:41.635Z,5.90
2022-12-08T06:25:10.212Z,6.28
2022-12-08T06:27:36.939Z,6.28
2022-12-08T06:30:04.150Z,6.05
2022-12-08T06:32:31.063Z,6.05
2022-12-08T06:34:57.618Z,5.30
2022-12-08T06:37:24.124Z,6.45
2022-12-08T06:39:51.701Z,6.28
2022-12-08T06:42:36.899Z,6.18
2022-12-08T06:45:03.731Z,5.82
2022-12-08T06:47:30.233Z,5.97
2022-12-08T06:49:56.724Z,6.93
2022-12-08T06:52:23.242Z,5.82
2022-12-08T06:54:49.747Z,5.13
2022-12-08T06:57:16.321Z,5.55
2022-12-08T06:59:42.822Z,6.57
2022-12-08T07:02:09.623Z,5.80
2022-12-08T07:04:36.230Z,6.13
2022-12-08T07:07:02.785Z,5.50
2022-12-08T07:09:29.303Z,6.18
2022-12-08T07:11:55.796Z,5.78
2022-12-08T07:14:24.773Z,6.18
2022-12-08T07:16:51.998Z,6.30
2022-12-08T07:19:19.022Z,6.78
2022-12-08T07:21:45.551Z,6.15
2022-12-08T07:24:12.090Z,5.88
2022-12-08T07:26:38.629Z,5.25
2022-12-08T07:29:05.234Z,5.95
2022-12-08T07:31:31.898Z,5.88
2022-12-08T07:33:58.444Z,6.25
2022-12-08T07:36:25.660Z,5.68
2022-12-08T07:38:53.717Z,6.90
2022-12-08T07:41:23.624Z,5.97
2022-12-08T07:43:51.009Z,6.38
2022-12-08T07:46:19.430Z,6.80
2022-12-08T07:48:46.257Z,6.28
2022-12-08T07:51:14.893Z,6.38
2022-12-08T07:53:50.067Z,5.50
2022-12-08T07:56:20.254Z,5.93
2022-12-08T07:58:46.897Z,5.93
2022-12-08T08:01:25.301Z,5.75
2022-12-08T08:03:52.161Z,6.22
2022-12-08T08:06:18.684Z,6.78
2022-12-08T08:08:45.324Z,5.13
2022-12-08T08:11:18.987Z,5.38
2022-12-08T08:13:47.709Z,5.50
2022-12-08T08:16:14.345Z,5.75
2022-12-08T08:18:41.335Z,5.50
2022-12-08T08:21:43.021Z,6.50
2022-12-08T08:23:54.695Z,7.18
2022-12-08T08:26:21.262Z,6.78
2022-12-08T08:28:48.201Z,6.13
2022-12-08T08:31:14.823Z,7.20
2022-12-08T08:33:41.397Z,7.78
2022-12-08T08:36:09.276Z,7.85
2022-12-08T08:38:39.950Z,6.32
2022-12-08T08:41:10.457Z,6.00
2022-12-08T08:43:38.547Z,7.40
2022-12-08T08:48:33.345Z,4.97
2022-12-08T08:51:09.920Z,7.18
2022-12-08T08:53:36.943Z,6.90
2022-12-08T08:56:05.147Z,5.68
2022-12-08T08:58:31.706Z,6.93
2022-12-08T09:00:58.227Z,6.15
2022-12-08T09:03:24.751Z,7.40
2022-12-08T09:05:51.514Z,7.22
2022-12-08T09:08:18.676Z,5.45
2022-12-08T09:10:45.243Z,5.97
2022-12-08T09:13:11.859Z,6.25
2022-12-08T09:15:38.636Z,6.90
2022-12-08T09:18:06.753Z,6.40
2022-12-08T09:20:34.081Z,5.88
2022-12-08T09:23:00.605Z,6.25
2022-12-08T09:25:28.374Z,6.80
2022-12-08T09:27:54.890Z,6.75
2022-12-08T09:30:21.465Z,7.75
2022-12-08T09:32:47.991Z,6.05
2022-12-08T09:35:14.488Z,6.40
2022-12-08T09:37:41.006Z,5.53
2022-12-08T09:40:08.304Z,5.70
2022-12-08T09:42:41.855Z,5.10
2022-12-08T09:45:12.263Z,5.60
2022-12-08T09:48:01.158Z,6.97
2022-12-08T09:50:59.198Z,5.82
2022-12-08T09:53:46.795Z,6.40
2022-12-08T09:56:16.169Z,7.43
2022-12-08T09:59:05.241Z,6.38
2022-12-08T10:01:38.404Z,5.38
2022-12-08T10:04:24.766Z,6.35
2022-12-08T10:07:07.429Z,6.13
2022-12-08T10:09:54.429Z,5.93
2022-12-08T10:12:44.288Z,6.68
2022-12-08T10:15:35.273Z,6.30
2022-12-08T10:18:03.620Z,5.88
2022-12-08T10:23:14.211Z,5.55
2022-12-08T10:25:47.855Z,5.93
2022-12-08T10:28:14.364Z,5.97
2022-12-08T10:30:41.431Z,5.65
2022-12-08T10:33:19.704Z,6.18
2022-12-08T10:35:54.340Z,6.10
2022-12-08T10:38:33.084Z,6.65
2022-12-08T10:41:11.860Z,6.03
2022-12-08T10:43:43.563Z,5.90
2022-12-08T10:46:12.699Z,5.38
2022-12-08T10:49:03.086Z,5.55
2022-12-08T10:51:36.765Z,5.07
2022-12-08T10:54:05.986Z,5.05
2022-12-08T10:56:33.073Z,5.20
2022-12-08T10:59:11.544Z,4.85
2022-12-08T11:01:39.819Z,4.57
2022-12-08T11:04:13.665Z,4.70
2022-12-08T11:06:41.201Z,5.03
2022-12-08T11:09:22.673Z,4.65
2022-12-08T11:11:57.683Z,4.68
2022-12-08T11:14:30.103Z,4.55
2022-12-08T11:17:06.288Z,4.50
2022-12-08T11:19:37.532Z,3.90
2022-12-08T11:22:21.402Z,3.95
2022-12-08T11:24:58.419Z,4.50
2022-12-08T11:27:25.047Z,4.40
2022-12-08T11:29:51.607Z,4.65
2022-12-08T11:32:18.098Z,4.63
2022-12-08T11:34:55.995Z,4.28
2022-12-08T11:37:35.223Z,4.38
2022-12-08T11:40:06.442Z,4.20
2022-12-08T11:42:42.820Z,3.92
2022-12-08T11:45:14.903Z,3.53
2022-12-08T11:47:45.240Z,4.00
2022-12-08T11:50:20.036Z,4.85
2022-12-08T11:52:48.280Z,3.78
2022-12-08T11:55:35.273Z,3.92
2022-12-08T11:58:18.897Z,4.55
2022-12-08T12:00:45.602Z,4.70
2022-12-08T12:03:35.635Z,4.35
2022-12-08T12:06:38.174Z,3.92
2022-12-08T12:09:19.723Z,3.75
2022-12-08T12:12:14.001Z,3.92
2022-12-08T12:15:18.449Z,3.75
2022-12-08T12:17:53.726Z,3.53
2022-12-08T12:20:46.210Z,4.05
2022-12-08T12:23:22.376Z,3.90
2022-12-08T12:25:58.120Z,3.60
2022-12-08T12:28:26.910Z,3.95
2022-12-08T12:31:22.905Z,3.40
2022-12-08T12:33:49.938Z,3.47
2022-12-08T12:36:17.002Z,3.75
2022-12-08T12:39:03.390Z,3.63
2022-12-08T12:41:42.150Z,3.92
2022-12-08T12:44:11.801Z,3.47
2022-12-08T12:46:53.392Z,3.72
2022-12-08T12:49:38.728Z,4.03
2022-12-08T12:52:21.030Z,3.53
2022-12-08T12:54:50.456Z,2.90
2022-12-08T12:57:19.974Z,3.10
2022-12-08T13:00:05.570Z,3.03
2022-12-08T13:02:44.269Z,3.35
2022-12-08T13:05:17.973Z,3.30
2022-12-08T13:08:23.548Z,3.13
2022-12-08T13:11:03.854Z,3.70
2022-12-08T13:13:30.909Z,3.10
2022-12-08T13:16:20.110Z,3.33
2022-12-08T13:18:48.884Z,3.47
2022-12-08T13:21:23.246Z,3.58
2022-12-08T13:24:09.105Z,3.30
2022-12-08T13:26:44.673Z,3.25
2022-12-08T13:29:18.773Z,2.70
2022-12-08T13:31:50.590Z,2.53
2022-12-08T13:34:52.312Z,3.28
2022-12-08T13:37:24.847Z,2.97
2022-12-08T13:39:55.455Z,2.83
2022-12-08T13:42:29.722Z,3.22
2022-12-08T13:45:25.544Z,3.17
2022-12-08T13:54:51.855Z,3.17
2022-12-08T13:57:03.020Z,3.30
2022-12-08T13:59:33.994Z,3.40
2022-12-08T14:02:13.172Z,2.75
2022-12-08T14:05:16.451Z,3.05
2022-12-08T14:07:32.108Z,2.90
2022-12-08T14:09:59.791Z,3.03
2022-12-08T14:12:30.632Z,2.70
2022-12-08T14:15:04.579Z,3.28
2022-12-08T14:17:32.113Z,2.97
2022-12-08T14:20:12.507Z,3.22
2022-12-08T14:22:40.630Z,3.58
2022-12-08T14:27:36.584Z,2.78
2022-12-08T14:30:14.094Z,3.03
2022-12-08T14:32:50.337Z,3.10
2022-12-08T14:35:31.516Z,2.45
2022-12-08T14:38:02.684Z,2.70
2022-12-08T14:40:33.852Z,2.60
2022-12-08T14:43:25.021Z,2.80
2022-12-08T14:45:53.357Z,3.22
2022-12-08T14:48:33.481Z,3.15
2022-12-08T14:51:03.062Z,3.28
2022-12-08T14:53:31.713Z,3.15
2022-12-08T14:55:58.314Z,3.33
2022-12-08T14:58:29.616Z,2.97
2022-12-08T15:00:58.466Z,2.85
2022-12-08T15:03:30.473Z,3.45
2022-12-08T15:06:00.321Z,3.60
2022-12-08T15:08:27.096Z,3.15
2022-12-08T15:11:33.625Z,3.17
2022-12-08T15:14:00.231Z,3.42
2022-12-08T15:16:41.654Z,3.40
2022-12-08T15:19:23.224Z,3.40
2022-12-08T15:21:50.209Z,2.95
2022-12-08T15:24:17.794Z,3.50
2022-12-08T15:26:49.023Z,3.15
2022-12-08T15:29:22.835Z,3.65
2022-12-08T15:31:50.962Z,3.55
2022-12-08T15:34:17.517Z,2.90
2022-12-08T15:36:48.763Z,2.95
2022-12-08T15:39:36.570Z,3.35
2022-12-08T15:42:04.637Z,3.70
2022-12-08T15:44:32.610Z,3.10
2022-12-08T15:47:00.029Z,3.67
2022-12-08T15:49:26.871Z,3.45
2022-12-08T15:52:00.609Z,3.50
2022-12-08T15:57:19.257Z,3.45
2022-12-08T15:59:47.626Z,3.38
2022-12-08T16:02:19.401Z,3.65
2022-12-08T16:07:38.945Z,3.15
2022-12-08T16:10:07.270Z,2.75
2022-12-08T16:15:59.231Z,4.13
2022-12-08T16:18:29.180Z,3.30
2022-12-08T16:21:09.686Z,3.60
2022-12-08T16:23:44.261Z,3.80
2022-12-08T16:29:06.983Z,3.40
2022-12-08T16:31:33.871Z,3.25
2022-12-08T16:34:00.506Z,3.20
2022-12-08T16:36:27.056Z,4.30
2022-12-08T16:38:53.542Z,3.60
2022-12-08T16:41:38.470Z,3.50
2022-12-08T16:44:05.786Z,2.92
2022-12-08T16:46:34.767Z,3.13
2022-12-08T16:49:01.408Z,3.72
2022-12-08T16:51:27.996Z,3.80
2022-12-08T16:53:55.491Z,4.20
2022-12-08T16:56:26.224Z,3.13
2022-12-08T16:58:57.185Z,3.83
2022-12-08T17:01:24.480Z,4.18
2022-12-08T17:04:14.369Z,3.88
2022-12-08T17:06:37.763Z,3.30
2022-12-08T17:09:04.568Z,3.92
2022-12-08T17:11:37.505Z,2.92
2022-12-08T17:14:09.074Z,4.40
2022-12-08T17:16:35.798Z,3.33
2022-12-08T17:19:02.594Z,3.75
2022-12-08T17:21:29.100Z,4.05
2022-12-08T17:23:55.727Z,3.60
2022-12-08T17:26:22.349Z,3.78
2022-12-08T17:29:04.253Z,3.63
2022-12-08T17:31:32.455Z,3.90
2022-12-08T17:34:03.899Z,4.47
2022-12-08T17:36:30.561Z,3.42
2022-12-08T17:38:58.935Z,3.58
2022-12-08T17:41:25.419Z,4.03
2022-12-08T17:43:51.987Z,3.33
2022-12-08T17:46:19.807Z,3.80
2022-12-08T17:48:46.593Z,3.30
2022-12-08T17:51:13.370Z,3.50
2022-12-08T17:53:40.737Z,4.10
2022-12-08T17:56:14.626Z,3.80
2022-12-08T17:58:41.144Z,3.70
2022-12-08T18:01:09.344Z,4.40
2022-12-08T18:06:10.494Z,3.65
2022-12-08T18:08:37.141Z,3.55
2022-12-08T18:11:04.264Z,3.72
2022-12-08T18:13:31.068Z,4.90
2022-12-08T18:15:57.798Z,4.53
2022-12-08T18:18:24.311Z,3.38
2022-12-08T18:20:50.853Z,4.05
2022-12-08T18:23:17.707Z,4.55
2022-12-08T18:25:44.554Z,4.25
2022-12-08T18:28:11.470Z,3.92
2022-12-08T18:30:39.046Z,4.10
2022-12-08T18:33:06.594Z,3.72
2022-12-08T18:35:33.406Z,3.55
2022-12-08T18:38:00.205Z,4.47
2022-12-08T18:40:27.874Z,4.88
2022-12-08T18:42:54.396Z,5.10
2022-12-08T18:45:22.778Z,4.40
2022-12-08T18:47:50.861Z,4.57
2022-12-08T18:50:17.775Z,6.10
2022-12-08T18:52:45.525Z,5.32
2022-12-08T18:55:12.083Z,5.10
2022-12-08T18:57:39.988Z,5.93
2022-12-08T19:00:07.754Z,5.20
2022-12-08T19:02:34.891Z,5.32
2022-12-08T19:05:01.446Z,5.28
2022-12-08T19:07:28.009Z,4.68
2022-12-08T19:09:56.046Z,4.68
2022-12-08T19:12:22.732Z,5.13
2022-12-08T19:14:49.278Z,6.10
2022-12-08T19:17:16.092Z,5.82
2022-12-08T19:19:42.777Z,4.68
2022-12-08T19:22:09.421Z,5.28
2022-12-08T19:24:36.667Z,5.55
2022-12-08T19:27:04.430Z,5.38
2022-12-08T19:29:30.924Z,4.88
2022-12-08T19:31:57.810Z,4.80
2022-12-08T19:34:24.432Z,4.93
2022-12-08T19:36:50.934Z,4.38
2022-12-08T19:39:39.004Z,4.65
2022-12-08T19:42:33.184Z,4.65
2022-12-08T19:45:21.477Z,4.47
2022-12-08T19:47:48.659Z,4.10
2022-12-08T19:50:34.990Z,5.80
2022-12-08T19:53:02.620Z,4.90
2022-12-08T19:55:29.155Z,4.95
2022-12-08T19:57:57.029Z,4.35
2022-12-08T20:00:24.001Z,4.22
2022-12-08T20:02:51.231Z,3.97
2022-12-08T20:05:17.764Z,5.05
2022-12-08T20:07:44.343Z,3.97
2022-12-08T20:10:19.840Z,4.53
2022-12-08T20:12:46.332Z,4.25
2022-12-08T20:15:14.588Z,5.30
2022-12-08T20:17:42.140Z,4.63
2022-12-08T20:20:10.435Z,5.50
2022-12-08T20:22:37.097Z,5.60
2022-12-08T20:25:03.850Z,5.50
2022-12-08T20:27:30.407Z,6.45
2022-12-08T20:29:57.060Z,5.40
2022-12-08T20:32:23.755Z,7.05
2022-12-08T20:34:50.285Z,6.45
2022-12-08T20:37:16.833Z,5.97
2022-12-08T20:39:43.364Z,7.15
2022-12-08T20:42:12.839Z,6.93
2022-12-08T20:44:43.240Z,6.97
2022-12-08T20:47:10.571Z,6.32
2022-12-08T20:49:37.321Z,7.05
2022-12-08T20:52:04.170Z,6.35
2022-12-08T20:54:30.854Z,6.68
2022-12-08T20:56:57.524Z,6.07
2022-12-08T20:59:24.160Z,6.47
2022-12-08T21:01:52.120Z,7.43
2022-12-08T21:04:18.839Z,6.53
2022-12-08T21:06:45.530Z,6.20
2022-12-08T21:09:12.399Z,6.95
2022-12-08T21:11:39.377Z,7.00
2022-12-08T21:14:05.965Z,6.47
2022-12-08T21:16:32.736Z,7.78
2022-12-08T21:19:00.053Z,6.53
2022-12-08T21:21:26.618Z,7.32
2022-12-08T21:23:53.562Z,5.93
2022-12-08T21:26:23.248Z,6.25
2022-12-08T21:28:49.830Z,6.45
2022-12-08T21:31:18.907Z,5.60
2022-12-08T21:33:45.816Z,6.45
2022-12-08T21:36:14.651Z,6.07
2022-12-08T21:38:42.260Z,6.40
2022-12-08T21:41:14.198Z,6.18
2022-12-08T21:43:41.474Z,7.85
2022-12-08T21:46:14.996Z,6.47
2022-12-08T21:48:41.701Z,6.13
2022-12-08T21:51:08.376Z,5.28
2022-12-08T21:53:34.870Z,5.43
2022-12-08T21:56:01.402Z,7.20
2022-12-08T21:58:28.513Z,6.43
2022-12-08T22:00:55.189Z,5.82
2022-12-08T22:03:22.036Z,7.10
2022-12-08T22:05:48.722Z,6.80
2022-12-08T22:08:15.391Z,6.72
2022-12-08T22:10:47.402Z,5.78
2022-12-08T22:13:14.249Z,6.25
2022-12-08T22:15:40.951Z,5.88
2022-12-08T22:18:08.519Z,6.65
2022-12-08T22:20:39.542Z,7.35
2022-12-08T22:23:09.131Z,7.00
2022-12-08T22:25:35.775Z,7.03
2022-12-08T22:28:02.371Z,7.10
2022-12-08T22:30:31.795Z,5.97
2022-12-08T22:33:00.867Z,6.43
2022-12-08T22:35:27.548Z,5.88
2022-12-08T22:37:54.203Z,5.90
2022-12-08T22:40:20.805Z,6.45
2022-12-08T22:42:47.404Z,7.07
2022-12-08T22:45:14.233Z,6.03
2022-12-08T22:47:40.879Z,6.25
2022-12-08T22:50:07.964Z,5.68
2022-12-08T22:52:34.709Z,5.63
2022-12-08T22:55:01.322Z,5.00
2022-12-08T22:57:28.629Z,5.43
2022-12-08T22:59:55.160Z,5.97
2022-12-08T23:02:21.650Z,4.88
2022-12-08T23:04:48.286Z,6.07
2022-12-08T23:07:15.264Z,5.40
2022-12-08T23:09:41.823Z,5.32
2022-12-08T23:12:08.339Z,6.70
2022-12-08T23:14:35.017Z,6.03
2022-12-08T23:17:01.595Z,5.38
2022-12-08T23:19:28.320Z,5.80
2022-12-08T23:21:54.817Z,6.07
2022-12-08T23:24:21.404Z,5.90
2022-12-08T23:26:47.934Z,6.63
2022-12-08T23:29:14.825Z,6.15
2022-12-08T23:31:41.544Z,6.18
2022-12-08T23:34:09.217Z,6.25
2022-12-08T23:36:35.763Z,5.95
2022-12-08T23:39:02.423Z,6.40
2022-12-08T23:41:29.131Z,6.43
2022-12-08T23:43:58.165Z,6.55
2022-12-08T23:46:24.923Z,6.82
2022-12-08T23:48:51.496Z,5.43
2022-12-08T23:51:19.005Z,5.70
2022-12-08T23:53:46.045Z,6.75
2022-12-08T23:56:14.991Z,6.38
2022-12-08T23:58:42.675Z,6.13
